Tuesday, February 19, 2019, 7:52 PM EST
Back to Local

KMHT, Manchester Airport

Location: Manchester, NH, United States Lat: 42.933
Local Time: 7:52 PM EST ( 0:52 GMT) Lon: -71.433
Time Zone: US/Eastern Elev: 232 ft

Show me the last for .
Show Decoded

2019-02-19 18:53 METAR KMHT 192353Z 32008KT 10SM FEW250 M04/M18 A3049 RMK AO2 SLP346 4/004
                 T10441183 11017 21044 53016 =
2019-02-19 17:53 METAR KMHT 192253Z 29008KT 10SM FEW250 M04/M18 A3047 RMK AO2 SLP339 T10391183 =
2019-02-19 16:53 METAR KMHT 192153Z 30011KT 10SM FEW250 M03/M19 A3045 RMK AO2 SLP331 T10281194 =
2019-02-19 15:53 METAR KMHT 192053Z 33014G18KT 10SM FEW250 M02/M18 A3044 RMK AO2 SLP328 T10221178
                 55002 =
2019-02-19 14:53 METAR KMHT 191953Z 31011KT 10SM FEW250 M02/M17 A3043 RMK AO2 SLP325 T10171172 =
2019-02-19 13:53 METAR KMHT 191853Z 30012G16KT 10SM SCT250 M02/M17 A3043 RMK AO2 SLP325 T10171172
                 =
2019-02-19 12:53 METAR KMHT 191753Z 33015KT 10SM FEW200 BKN250 M03/M18 A3044 RMK AO2 SLP330 4/004
                 T10281178 11028 21106 58005 =
2019-02-19 11:53 METAR KMHT 191653Z 33009KT 10SM BKN250 M04/M16 A3045 RMK AO2 SLP333 T10391161 =
2019-02-19 10:53 METAR KMHT 191553Z 30014G22KT 10SM BKN250 M06/M17 A3046 RMK AO2 PK WND
                 33028/1511 SLP337 T10561172 =
2019-02-19 09:53 METAR KMHT 191453Z 32010KT 10SM FEW250 M07/M17 A3046 RMK AO2 SLP335 T10721167
                 51025 =
2019-02-19 08:53 METAR KMHT 191353Z 32011G19KT 10SM FEW250 M08/M17 A3045 RMK AO2 SLP331 T10831172
                 =
2019-02-19 07:53 METAR KMHT 191253Z 34011KT 10SM CLR M09/M17 A3043 RMK AO2 SLP324 T10941172 =
2019-02-19 06:53 METAR KMHT 191153Z 33009G15KT 10SM CLR M11/M17 A3039 RMK AO2 SLP310 4/004 70002
                 T11061172 11083 21111 53024 $ =
2019-02-19 05:53 METAR KMHT 191053Z 29004KT 10SM CLR M11/M17 A3036 RMK AO2 SLP303 T11061167 $ =
2019-02-19 04:53 METAR KMHT 190953Z 32009KT 10SM CLR M11/M17 A3033 RMK AO2 SLP293 T11061167 $ =
2019-02-19 03:53 METAR KMHT 190853Z 32006KT 10SM CLR M09/M17 A3031 RMK AO2 SLP286 T10941167 51025
                 $ =
2019-02-19 02:53 METAR KMHT 190753Z 29006KT 10SM CLR M09/M17 A3029 RMK AO2 SLP279 T10891167 $ =
2019-02-19 01:53 METAR KMHT 190653Z 31011G16KT 10SM CLR M08/M17 A3027 RMK AO2 SLP270 T10831167 $
                 =
2019-02-19 00:53 METAR KMHT 190553Z 33006G14KT 10SM CLR M09/M17 A3024 RMK AO2 SLP261 4/004 60000
                 T10891172 11028 21089 51027 $ =
2019-02-18 23:53 METAR KMHT 190453Z 33007G20KT 10SM CLR M08/M17 A3021 RMK AO2 SLP251 T10831172
                 410221083 $ =
2019-02-18 22:53 METAR KMHT 190353Z 33013G21KT 10SM CLR M08/M17 A3019 RMK AO2 SLP245 T10781167 $
                 =
2019-02-18 21:53 METAR KMHT 190253Z 32013G22KT 10SM CLR M07/M15 A3016 RMK AO2 SLP233 60000
                 T10671150 51051 $ =
2019-02-18 20:53 METAR KMHT 190153Z 33018G26KT 10SM FEW024 M06/M13 A3011 RMK AO2 PK WND
                 33026/0144 SLP216 P0000 T10561128 $ =
2019-02-18 19:53 METAR KMHT 190053Z 34009KT 10SM SCT027 M04/M09 A3006 RMK AO2 SLP198 T10391089 $
                 =

Support USWX by starting your Amazon purchase here.